Terminal Aerodrome Forecast
Issued by NWS

Home | Current Version | Previous Version | Graphics & Text | Print | Product List | Glossary On
Versions: 1 2 3 4 5 6 7 8 9 10 11 12
221
FTUS42 KMHX 072334
TAFOAJ
TAF
KOAJ 072334Z 0800/0824 VRB03KT P6SM FEW250
     FM080600 00000KT P6SM SCT025
     FM080800 00000KT P6SM BKN020
     FM081100 00000KT P6SM BKN015
     FM081400 23005KT P6SM BKN020
     FM081600 28005KT P6SM BKN035
     FM082100 31010KT P6SM BKN050
      AMD LTD TO CLD VIS AND WIND=

USA.gov is the U.S. government's official web portal to all federal, state and local government web resources and services.